sensor_id;sensor_type;location;lat;lon;timestamp;pressure;altitude;pressure_sealevel;temperature;humidity
28927;BME280;16038;47.692;9.400;2024-02-15T00:01:15;97175.94;;;5.78;100.00
28927;BME280;16038;47.692;9.400;2024-02-15T00:03:41;97177.22;;;5.81;100.00
28927;BME280;16038;47.692;9.400;2024-02-15T00:06:07;97181.25;;;5.74;100.00
28927;BME280;16038;47.692;9.400;2024-02-15T00:08:32;97175.97;;;5.69;100.00
28927;BME280;16038;47.692;9.400;2024-02-15T00:10:58;97174.06;;;5.61;100.00
28927;BME280;16038;47.692;9.400;2024-02-15T00:13:23;97165.44;;;5.50;100.00
28927;BME280;16038;47.692;9.400;2024-02-15T00:15:48;97167.84;;;5.43;100.00
28927;BME280;16038;47.692;9.400;2024-02-15T00:18:15;97167.22;;;5.46;100.00
28927;BME280;16038;47.692;9.400;2024-02-15T00:20:41;97167.06;;;5.43;100.00
28927;BME280;16038;47.692;9.400;2024-02-15T00:23:06;97169.31;;;5.23;100.00
28927;BME280;16038;47.692;9.400;2024-02-15T00:25:32;97170.25;;;5.01;100.00
28927;BME280;16038;47.692;9.400;2024-02-15T00:27:58;97175.69;;;5.01;100.00
28927;BME280;16038;47.692;9.400;2024-02-15T00:30:28;97178.09;;;5.03;100.00
28927;BME280;16038;47.692;9.400;2024-02-15T00:32:53;97186.25;;;5.03;100.00
28927;BME280;16038;47.692;9.400;2024-02-15T00:35:19;97190.38;;;5.00;100.00
28927;BME280;16038;47.692;9.400;2024-02-15T00:37:44;97183.50;;;4.94;100.00
28927;BME280;16038;47.692;9.400;2024-02-15T00:40:10;97184.75;;;4.88;100.00
28927;BME280;16038;47.692;9.400;2024-02-15T00:42:36;97185.25;;;4.81;100.00
28927;BME280;16038;47.692;9.400;2024-02-15T00:45:03;97188.44;;;4.74;100.00
28927;BME280;16038;47.692;9.400;2024-02-15T00:47:30;97187.47;;;4.70;100.00
28927;BME280;16038;47.692;9.400;2024-02-15T00:49:55;97191.28;;;4.69;100.00
28927;BME280;16038;47.692;9.400;2024-02-15T00:52:20;97188.88;;;4.68;100.00
28927;BME280;16038;47.692;9.400;2024-02-15T00:54:46;97194.31;;;4.68;100.00
28927;BME280;16038;47.692;9.400;2024-02-15T00:57:12;97196.06;;;4.64;100.00
28927;BME280;16038;47.692;9.400;2024-02-15T00:59:37;97191.13;;;4.66;100.00
28927;BME280;16038;47.692;9.400;2024-02-15T01:02:03;97190.16;;;4.62;100.00
28927;BME280;16038;47.692;9.400;2024-02-15T01:04:29;97191.56;;;4.59;100.00
28927;BME280;16038;47.692;9.400;2024-02-15T01:06:54;97196.22;;;4.58;100.00
28927;BME280;16038;47.692;9.400;2024-02-15T01:09:21;97197.66;;;4.56;100.00
28927;BME280;16038;47.692;9.400;2024-02-15T01:11:47;97193.16;;;4.51;100.00
28927;BME280;16038;47.692;9.400;2024-02-15T01:14:13;97188.59;;;4.20;100.00
28927;BME280;16038;47.692;9.400;2024-02-15T01:16:38;97188.97;;;4.05;100.00
28927;BME280;16038;47.692;9.400;2024-02-15T01:19:04;97194.22;;;4.01;100.00
28927;BME280;16038;47.692;9.400;2024-02-15T01:21:30;97195.72;;;4.08;100.00
28927;BME280;16038;47.692;9.400;2024-02-15T01:23:56;97185.97;;;4.07;100.00
28927;BME280;16038;47.692;9.400;2024-02-15T01:26:21;97192.97;;;3.99;100.00
28927;BME280;16038;47.692;9.400;2024-02-15T01:28:46;97193.25;;;3.97;100.00
28927;BME280;16038;47.692;9.400;2024-02-15T01:31:12;97193.22;;;3.89;100.00
28927;BME280;16038;47.692;9.400;2024-02-15T01:33:38;97195.38;;;3.78;100.00
28927;BME280;16038;47.692;9.400;2024-02-15T01:36:04;97185.75;;;3.63;100.00
28927;BME280;16038;47.692;9.400;2024-02-15T01:38:29;97189.41;;;3.58;100.00
28927;BME280;16038;47.692;9.400;2024-02-15T01:40:55;97186.88;;;3.62;100.00
28927;BME280;16038;47.692;9.400;2024-02-15T01:43:20;97184.00;;;3.67;100.00
28927;BME280;16038;47.692;9.400;2024-02-15T01:45:46;97175.03;;;3.58;100.00
28927;BME280;16038;47.692;9.400;2024-02-15T01:48:15;97175.41;;;3.65;100.00
28927;BME280;16038;47.692;9.400;2024-02-15T01:50:41;97179.22;;;3.64;100.00
28927;BME280;16038;47.692;9.400;2024-02-15T01:53:07;97170.63;;;3.71;100.00
28927;BME280;16038;47.692;9.400;2024-02-15T01:55:34;97174.84;;;3.77;100.00
28927;BME280;16038;47.692;9.400;2024-02-15T01:58:01;97168.41;;;3.64;100.00
28927;BME280;16038;47.692;9.400;2024-02-15T02:00:27;97172.91;;;3.46;100.00
28927;BME280;16038;47.692;9.400;2024-02-15T02:02:53;97173.69;;;3.47;100.00
28927;BME280;16038;47.692;9.400;2024-02-15T02:05:19;97168.94;;;3.52;100.00
28927;BME280;16038;47.692;9.400;2024-02-15T02:07:45;97171.34;;;3.54;100.00
28927;BME280;16038;47.692;9.400;2024-02-15T02:10:11;97175.91;;;3.44;100.00
28927;BME280;16038;47.692;9.400;2024-02-15T02:12:40;97172.53;;;3.39;100.00
28927;BME280;16038;47.692;9.400;2024-02-15T02:15:07;97169.47;;;3.32;100.00
28927;BME280;16038;47.692;9.400;2024-02-15T02:17:33;97168.97;;;3.30;100.00
28927;BME280;16038;47.692;9.400;2024-02-15T02:19:59;97170.56;;;3.31;100.00
28927;BME280;16038;47.692;9.400;2024-02-15T02:22:24;97159.66;;;3.22;100.00
28927;BME280;16038;47.692;9.400;2024-02-15T02:25:06;97160.09;;;3.15;100.00
28927;BME280;16038;47.692;9.400;2024-02-15T02:27:34;97166.13;;;3.12;100.00
28927;BME280;16038;47.692;9.400;2024-02-15T02:30:00;97158.91;;;3.08;100.00
28927;BME280;16038;47.692;9.400;2024-02-15T02:32:26;97155.34;;;2.98;100.00
28927;BME280;16038;47.692;9.400;2024-02-15T02:34:52;97154.88;;;2.82;100.00
28927;BME280;16038;47.692;9.400;2024-02-15T02:37:23;97160.41;;;2.77;100.00
28927;BME280;16038;47.692;9.400;2024-02-15T02:39:50;97157.38;;;2.79;100.00
28927;BME280;16038;47.692;9.400;2024-02-15T02:42:16;97157.09;;;2.80;100.00
28927;BME280;16038;47.692;9.400;2024-02-15T02:44:41;97157.06;;;2.94;100.00
28927;BME280;16038;47.692;9.400;2024-02-15T02:47:06;97150.84;;;2.94;100.00
28927;BME280;16038;47.692;9.400;2024-02-15T02:49:32;97151.22;;;3.01;100.00
28927;BME280;16038;47.692;9.400;2024-02-15T02:52:00;97140.22;;;2.97;100.00
28927;BME280;16038;47.692;9.400;2024-02-15T02:54:25;97144.25;;;2.86;100.00
28927;BME280;16038;47.692;9.400;2024-02-15T02:56:50;97141.25;;;2.87;100.00
28927;BME280;16038;47.692;9.400;2024-02-15T02:59:16;97138.03;;;2.85;100.00
28927;BME280;16038;47.692;9.400;2024-02-15T03:01:41;97146.75;;;2.82;100.00
28927;BME280;16038;47.692;9.400;2024-02-15T03:04:07;97138.66;;;2.82;100.00
28927;BME280;16038;47.692;9.400;2024-02-15T03:06:34;97143.88;;;2.79;100.00
28927;BME280;16038;47.692;9.400;2024-02-15T03:08:59;97137.47;;;2.75;100.00
28927;BME280;16038;47.692;9.400;2024-02-15T03:11:24;97130.59;;;2.68;100.00
28927;BME280;16038;47.692;9.400;2024-02-15T03:13:50;97133.09;;;2.65;100.00
28927;BME280;16038;47.692;9.400;2024-02-15T03:16:15;97132.09;;;2.61;100.00
28927;BME280;16038;47.692;9.400;2024-02-15T03:18:42;97130.00;;;2.58;100.00
28927;BME280;16038;47.692;9.400;2024-02-15T03:21:08;97125.31;;;2.49;100.00
28927;BME280;16038;47.692;9.400;2024-02-15T03:23:36;97130.00;;;2.58;100.00
28927;BME280;16038;47.692;9.400;2024-02-15T03:26:02;97135.13;;;2.59;100.00
28927;BME280;16038;47.692;9.400;2024-02-15T03:28:29;97135.72;;;2.56;100.00
28927;BME280;16038;47.692;9.400;2024-02-15T03:30:55;97137.75;;;2.37;100.00
28927;BME280;16038;47.692;9.400;2024-02-15T03:33:21;97141.88;;;2.20;100.00
28927;BME280;16038;47.692;9.400;2024-02-15T03:35:51;97129.97;;;2.07;100.00
28927;BME280;16038;47.692;9.400;2024-02-15T03:38:17;97142.88;;;1.97;100.00
28927;BME280;16038;47.692;9.400;2024-02-15T03:40:42;97134.16;;;2.00;100.00
28927;BME280;16038;47.692;9.400;2024-02-15T03:43:08;97138.47;;;2.15;100.00
28927;BME280;16038;47.692;9.400;2024-02-15T03:45:34;97131.75;;;2.12;100.00
28927;BME280;16038;47.692;9.400;2024-02-15T03:47:59;97130.97;;;2.12;100.00
28927;BME280;16038;47.692;9.400;2024-02-15T03:50:24;97134.06;;;2.19;100.00
28927;BME280;16038;47.692;9.400;2024-02-15T03:52:50;97131.75;;;2.26;100.00
28927;BME280;16038;47.692;9.400;2024-02-15T03:55:16;97132.56;;;2.26;100.00
28927;BME280;16038;47.692;9.400;2024-02-15T03:57:41;97129.34;;;2.24;100.00
28927;BME280;16038;47.692;9.400;2024-02-15T04:00:09;97131.25;;;2.24;100.00
28927;BME280;16038;47.692;9.400;2024-02-15T04:02:36;97130.47;;;2.23;100.00
28927;BME280;16038;47.692;9.400;2024-02-15T04:05:02;97129.56;;;2.14;100.00
28927;BME280;16038;47.692;9.400;2024-02-15T04:07:30;97125.97;;;2.19;100.00
28927;BME280;16038;47.692;9.400;2024-02-15T04:09:56;97124.78;;;2.11;100.00
28927;BME280;16038;47.692;9.400;2024-02-15T04:12:23;97137.38;;;2.02;100.00
28927;BME280;16038;47.692;9.400;2024-02-15T04:14:49;97137.47;;;1.97;100.00
28927;BME280;16038;47.692;9.400;2024-02-15T04:17:16;97140.56;;;1.90;100.00
28927;BME280;16038;47.692;9.400;2024-02-15T04:19:45;97139.47;;;1.91;100.00
28927;BME280;16038;47.692;9.400;2024-02-15T04:22:16;97141.75;;;1.98;100.00
28927;BME280;16038;47.692;9.400;2024-02-15T04:24:42;97137.97;;;1.99;100.00
28927;BME280;16038;47.692;9.400;2024-02-15T04:27:09;97133.47;;;1.94;100.00
28927;BME280;16038;47.692;9.400;2024-02-15T04:29:37;97131.75;;;1.84;100.00
28927;BME280;16038;47.692;9.400;2024-02-15T04:32:07;97140.94;;;1.83;100.00
28927;BME280;16038;47.692;9.400;2024-02-15T04:34:34;97140.94;;;1.83;100.00
28927;BME280;16038;47.692;9.400;2024-02-15T04:37:00;97133.97;;;1.82;100.00
28927;BME280;16038;47.692;9.400;2024-02-15T04:39:26;97129.84;;;1.85;100.00
28927;BME280;16038;47.692;9.400;2024-02-15T04:41:55;97128.34;;;1.79;100.00
28927;BME280;16038;47.692;9.400;2024-02-15T04:44:20;97134.81;;;1.64;100.00
28927;BME280;16038;47.692;9.400;2024-02-15T04:46:49;97135.72;;;1.59;100.00
28927;BME280;16038;47.692;9.400;2024-02-15T04:49:17;97140.53;;;1.62;100.00
28927;BME280;16038;47.692;9.400;2024-02-15T04:51:42;97129.13;;;1.65;100.00
28927;BME280;16038;47.692;9.400;2024-02-15T04:54:09;97135.56;;;1.69;100.00
28927;BME280;16038;47.692;9.400;2024-02-15T04:56:41;97132.53;;;1.71;100.00
28927;BME280;16038;47.692;9.400;2024-02-15T04:59:07;97133.56;;;1.75;100.00
28927;BME280;16038;47.692;9.400;2024-02-15T05:01:42;97136.56;;;1.74;100.00
28927;BME280;16038;47.692;9.400;2024-02-15T05:04:10;97133.66;;;1.70;100.00
28927;BME280;16038;47.692;9.400;2024-02-15T05:06:35;97129.13;;;1.65;100.00
28927;BME280;16038;47.692;9.400;2024-02-15T05:09:02;97127.53;;;1.64;100.00
28927;BME280;16038;47.692;9.400;2024-02-15T05:11:33;97127.34;;;1.61;100.00
28927;BME280;16038;47.692;9.400;2024-02-15T05:14:02;97127.34;;;1.61;100.00
28927;BME280;16038;47.692;9.400;2024-02-15T05:16:30;97126.63;;;1.55;100.00
28927;BME280;16038;47.692;9.400;2024-02-15T05:18:57;97133.50;;;1.47;100.00
28927;BME280;16038;47.692;9.400;2024-02-15T05:21:22;97128.09;;;1.33;100.00
28927;BME280;16038;47.692;9.400;2024-02-15T05:23:47;97126.19;;;1.34;100.00
28927;BME280;16038;47.692;9.400;2024-02-15T05:26:13;97124.84;;;1.18;100.00
28927;BME280;16038;47.692;9.400;2024-02-15T05:28:42;97125.00;;;1.07;100.00
28927;BME280;16038;47.692;9.400;2024-02-15T05:31:12;97128.19;;;1.09;100.00
28927;BME280;16038;47.692;9.400;2024-02-15T05:33:39;97123.31;;;1.11;100.00
28927;BME280;16038;47.692;9.400;2024-02-15T05:36:11;97132.94;;;1.18;100.00
28927;BME280;16038;47.692;9.400;2024-02-15T05:38:37;97126.84;;;1.26;100.00
28927;BME280;16038;47.692;9.400;2024-02-15T05:41:02;97126.25;;;1.29;100.00
28927;BME280;16038;47.692;9.400;2024-02-15T05:43:28;97126.56;;;1.27;100.00
28927;BME280;16038;47.692;9.400;2024-02-15T05:45:54;97120.06;;;1.28;100.00
28927;BME280;16038;47.692;9.400;2024-02-15T05:48:19;97119.16;;;1.19;100.00
28927;BME280;16038;47.692;9.400;2024-02-15T05:50:45;97127.69;;;1.07;100.00
28927;BME280;16038;47.692;9.400;2024-02-15T05:53:11;97119.69;;;1.02;100.00
28927;BME280;16038;47.692;9.400;2024-02-15T05:55:37;97121.38;;;0.79;100.00
28927;BME280;16038;47.692;9.400;2024-02-15T05:58:05;97115.63;;;0.48;100.00
28927;BME280;16038;47.692;9.400;2024-02-15T06:00:34;97108.56;;;0.52;100.00
28927;BME280;16038;47.692;9.400;2024-02-15T06:02:59;97114.31;;;0.64;100.00
28927;BME280;16038;47.692;9.400;2024-02-15T06:05:28;97117.81;;;0.65;100.00
28927;BME280;16038;47.692;9.400;2024-02-15T06:07:53;97129.34;;;0.70;100.00
28927;BME280;16038;47.692;9.400;2024-02-15T06:10:19;97120.66;;;0.73;100.00
28927;BME280;16038;47.692;9.400;2024-02-15T06:12:44;97120.56;;;0.79;100.00
28927;BME280;16038;47.692;9.400;2024-02-15T06:15:10;97124.28;;;0.83;100.00
28927;BME280;16038;47.692;9.400;2024-02-15T06:17:41;97112.78;;;0.77;100.00
28927;BME280;16038;47.692;9.400;2024-02-15T06:20:10;97117.75;;;0.70;100.00
28927;BME280;16038;47.692;9.400;2024-02-15T06:22:38;97121.84;;;0.67;100.00
28927;BME280;16038;47.692;9.400;2024-02-15T06:25:04;97119.63;;;0.69;100.00
28927;BME280;16038;47.692;9.400;2024-02-15T06:27:31;97124.38;;;0.78;100.00
28927;BME280;16038;47.692;9.400;2024-02-15T06:29:58;97124.28;;;0.83;100.00
28927;BME280;16038;47.692;9.400;2024-02-15T06:32:42;97126.13;;;0.87;100.00
28927;BME280;16038;47.692;9.400;2024-02-15T06:35:27;97137.25;;;1.00;100.00
28927;BME280;16038;47.692;9.400;2024-02-15T06:38:10;97122.78;;;1.09;100.00
28927;BME280;16038;47.692;9.400;2024-02-15T06:40:54;97127.19;;;1.05;100.00
28927;BME280;16038;47.692;9.400;2024-02-15T06:43:20;97124.50;;;1.05;100.00
28927;BME280;16038;47.692;9.400;2024-02-15T06:45:46;97127.63;;;1.12;100.00
28927;BME280;16038;47.692;9.400;2024-02-15T06:48:11;97136.50;;;1.13;100.00
28927;BME280;16038;47.692;9.400;2024-02-15T06:50:37;97124.69;;;1.09;100.00
28927;BME280;16038;47.692;9.400;2024-02-15T06:53:03;97121.56;;;1.02;100.00
28927;BME280;16038;47.692;9.400;2024-02-15T06:55:28;97125.13;;;1.16;100.00
28927;BME280;16038;47.692;9.400;2024-02-15T06:57:54;97120.53;;;1.17;100.00
28927;BME280;16038;47.692;9.400;2024-02-15T07:00:20;97121.22;;;1.22;100.00
28927;BME280;16038;47.692;9.400;2024-02-15T07:02:46;97118.84;;;1.21;100.00
28927;BME280;16038;47.692;9.400;2024-02-15T07:05:13;97130.47;;;1.35;100.00
28927;BME280;16038;47.692;9.400;2024-02-15T07:07:39;97124.03;;;1.50;100.00
28927;BME280;16038;47.692;9.400;2024-02-15T07:10:05;97133.91;;;1.55;100.00
28927;BME280;16038;47.692;9.400;2024-02-15T07:12:31;97132.75;;;1.61;100.00
28927;BME280;16038;47.692;9.400;2024-02-15T07:14:57;97129.66;;;1.81;100.00
28927;BME280;16038;47.692;9.400;2024-02-15T07:17:23;97125.84;;;2.10;100.00
28927;BME280;16038;47.692;9.400;2024-02-15T07:19:48;97120.84;;;2.31;100.00
28927;BME280;16038;47.692;9.400;2024-02-15T07:22:16;97121.41;;;2.56;100.00
28927;BME280;16038;47.692;9.400;2024-02-15T07:24:42;97120.47;;;2.97;100.00
28927;BME280;16038;47.692;9.400;2024-02-15T07:27:07;97120.13;;;3.43;100.00
28927;BME280;16038;47.692;9.400;2024-02-15T07:29:34;97115.38;;;4.20;100.00
28927;BME280;16038;47.692;9.400;2024-02-15T07:32:06;97123.31;;;4.74;100.00
28927;BME280;16038;47.692;9.400;2024-02-15T07:34:32;97116.28;;;5.26;100.00
28927;BME280;16038;47.692;9.400;2024-02-15T07:36:58;97109.69;;;5.91;100.00
28927;BME280;16038;47.692;9.400;2024-02-15T07:39:24;97110.34;;;6.57;100.00
28927;BME280;16038;47.692;9.400;2024-02-15T07:41:52;97119.31;;;6.78;100.00
28927;BME280;16038;47.692;9.400;2024-02-15T07:44:18;97119.38;;;7.78;100.00
28927;BME280;16038;47.692;9.400;2024-02-15T07:46:43;97122.47;;;9.28;100.00
28927;BME280;16038;47.692;9.400;2024-02-15T07:49:11;97117.75;;;10.49;96.44
28927;BME280;16038;47.692;9.400;2024-02-15T07:51:36;97123.28;;;11.23;88.07
28927;BME280;16038;47.692;9.400;2024-02-15T07:54:02;97116.75;;;10.93;79.27
28927;BME280;16038;47.692;9.400;2024-02-15T07:56:28;97120.03;;;11.18;83.53
28927;BME280;16038;47.692;9.400;2024-02-15T07:58:54;97122.66;;;10.75;85.68
28927;BME280;16038;47.692;9.400;2024-02-15T08:01:19;97124.44;;;11.22;79.35
28927;BME280;16038;47.692;9.400;2024-02-15T08:03:48;97113.28;;;10.41;85.43
28927;BME280;16038;47.692;9.400;2024-02-15T08:06:15;97116.19;;;10.48;87.48
28927;BME280;16038;47.692;9.400;2024-02-15T08:08:45;97110.16;;;11.95;81.13
28927;BME280;16038;47.692;9.400;2024-02-15T08:11:12;97116.28;;;12.57;70.83
28927;BME280;16038;47.692;9.400;2024-02-15T08:16:09;97093.72;;;11.13;83.66
28927;BME280;16038;47.692;9.400;2024-02-15T08:18:36;97097.38;;;10.66;86.87
28927;BME280;16038;47.692;9.400;2024-02-15T08:21:03;97085.91;;;10.41;86.46
28927;BME280;16038;47.692;9.400;2024-02-15T08:23:29;97085.16;;;10.79;87.20
28927;BME280;16038;47.692;9.400;2024-02-15T08:25:54;97083.41;;;10.51;90.33
28927;BME280;16038;47.692;9.400;2024-02-15T08:28:20;97076.50;;;10.42;89.30
28927;BME280;16038;47.692;9.400;2024-02-15T08:30:46;97066.16;;;11.06;88.76
28927;BME280;16038;47.692;9.400;2024-02-15T08:33:12;97058.44;;;10.37;92.52
28927;BME280;16038;47.692;9.400;2024-02-15T08:35:38;97058.22;;;11.01;91.11
28927;BME280;16038;47.692;9.400;2024-02-15T08:38:06;97060.72;;;11.72;85.22
28927;BME280;16038;47.692;9.400;2024-02-15T08:40:31;97054.13;;;11.53;83.72
28927;BME280;16038;47.692;9.400;2024-02-15T08:42:57;97049.63;;;11.22;88.74
28927;BME280;16038;47.692;9.400;2024-02-15T08:45:22;97037.75;;;10.24;97.28
28927;BME280;16038;47.692;9.400;2024-02-15T08:47:48;97029.81;;;10.03;96.29
28927;BME280;16038;47.692;9.400;2024-02-15T08:50:15;97030.78;;;11.63;92.44
28927;BME280;16038;47.692;9.400;2024-02-15T08:52:40;97036.84;;;11.72;82.54
28927;BME280;16038;47.692;9.400;2024-02-15T08:55:07;97038.47;;;12.50;79.00
28927;BME280;16038;47.692;9.400;2024-02-15T08:57:35;97036.19;;;12.55;76.84
28927;BME280;16038;47.692;9.400;2024-02-15T09:00:04;97029.38;;;13.40;70.74
28927;BME280;16038;47.692;9.400;2024-02-15T09:02:44;97033.91;;;13.63;64.88
28927;BME280;16038;47.692;9.400;2024-02-15T09:05:10;97031.72;;;12.20;65.76
28927;BME280;16038;47.692;9.400;2024-02-15T09:07:41;97038.69;;;12.98;63.02
28927;BME280;16038;47.692;9.400;2024-02-15T09:10:10;97024.81;;;13.55;62.64
28927;BME280;16038;47.692;9.400;2024-02-15T09:12:40;97019.91;;;13.04;62.04
28927;BME280;16038;47.692;9.400;2024-02-15T09:15:07;97014.53;;;12.80;66.16
28927;BME280;16038;47.692;9.400;2024-02-15T09:17:33;97015.22;;;13.38;62.43
28927;BME280;16038;47.692;9.400;2024-02-15T09:20:11;97015.81;;;13.58;64.25
28927;BME280;16038;47.692;9.400;2024-02-15T09:25:16;97013.53;;;14.15;57.47
28927;BME280;16038;47.692;9.400;2024-02-15T09:27:41;97012.81;;;14.92;55.25
28927;BME280;16038;47.692;9.400;2024-02-15T09:30:07;97009.25;;;13.73;57.43
28927;BME280;16038;47.692;9.400;2024-02-15T09:32:36;97015.03;;;13.24;60.26
28927;BME280;16038;47.692;9.400;2024-02-15T09:35:01;97001.03;;;12.68;61.20
28927;BME280;16038;47.692;9.400;2024-02-15T09:37:27;96994.88;;;11.95;66.08
28927;BME280;16038;47.692;9.400;2024-02-15T09:39:54;96996.38;;;13.06;62.85
28927;BME280;16038;47.692;9.400;2024-02-15T09:42:20;97000.97;;;13.73;58.78
28927;BME280;16038;47.692;9.400;2024-02-15T09:44:46;97004.47;;;14.15;56.26
28927;BME280;16038;47.692;9.400;2024-02-15T09:47:12;96997.56;;;14.39;55.81
28927;BME280;16038;47.692;9.400;2024-02-15T09:49:39;96995.41;;;14.14;54.69
28927;BME280;16038;47.692;9.400;2024-02-15T09:52:08;96988.81;;;12.66;58.14
28927;BME280;16038;47.692;9.400;2024-02-15T09:54:40;96984.28;;;12.20;60.13
28927;BME280;16038;47.692;9.400;2024-02-15T09:57:08;96973.19;;;12.13;63.34
28927;BME280;16038;47.692;9.400;2024-02-15T09:59:34;96977.09;;;13.81;56.50
28927;BME280;16038;47.692;9.400;2024-02-15T10:02:01;96968.63;;;13.56;58.38
28927;BME280;16038;47.692;9.400;2024-02-15T10:04:27;96974.63;;;14.24;53.80
28927;BME280;16038;47.692;9.400;2024-02-15T10:06:53;96968.47;;;12.40;60.21
28927;BME280;16038;47.692;9.400;2024-02-15T10:09:28;96962.03;;;12.59;61.41
28927;BME280;16038;47.692;9.400;2024-02-15T10:11:59;96967.63;;;12.66;60.43
28927;BME280;16038;47.692;9.400;2024-02-15T10:14:29;96957.34;;;12.93;59.61
28927;BME280;16038;47.692;9.400;2024-02-15T10:16:55;96959.44;;;13.04;62.37
28927;BME280;16038;47.692;9.400;2024-02-15T10:19:22;96960.97;;;13.83;58.82
28927;BME280;16038;47.692;9.400;2024-02-15T10:21:51;96961.56;;;13.62;59.12
28927;BME280;16038;47.692;9.400;2024-02-15T10:24:20;96952.75;;;12.71;60.79
28927;BME280;16038;47.692;9.400;2024-02-15T10:26:48;96965.44;;;14.68;56.75
28927;BME280;16038;47.692;9.400;2024-02-15T10:29:14;96948.47;;;13.07;57.25
28927;BME280;16038;47.692;9.400;2024-02-15T10:31:55;96944.81;;;13.82;57.25
28927;BME280;16038;47.692;9.400;2024-02-15T10:34:21;96945.75;;;13.52;57.40
28927;BME280;16038;47.692;9.400;2024-02-15T10:36:48;96945.41;;;12.78;61.49
28927;BME280;16038;47.692;9.400;2024-02-15T10:39:19;96943.00;;;12.43;63.37
28927;BME280;16038;47.692;9.400;2024-02-15T10:41:51;96932.94;;;11.71;65.04
28927;BME280;16038;47.692;9.400;2024-02-15T10:44:22;96931.53;;;12.07;65.60
28927;BME280;16038;47.692;9.400;2024-02-15T10:46:49;96927.13;;;12.02;66.79
28927;BME280;16038;47.692;9.400;2024-02-15T10:51:45;96917.13;;;11.64;69.33
28927;BME280;16038;47.692;9.400;2024-02-15T10:54:22;96916.72;;;12.15;67.78
28927;BME280;16038;47.692;9.400;2024-02-15T10:56:53;96905.41;;;12.85;65.30
28927;BME280;16038;47.692;9.400;2024-02-15T10:59:28;96894.28;;;12.74;74.02
28927;BME280;16038;47.692;9.400;2024-02-15T11:01:59;96889.47;;;13.42;71.84
28927;BME280;16038;47.692;9.400;2024-02-15T11:04:25;96889.44;;;13.90;69.69
28927;BME280;16038;47.692;9.400;2024-02-15T11:06:58;96899.16;;;14.43;66.19
28927;BME280;16038;47.692;9.400;2024-02-15T11:09:25;96899.75;;;14.96;65.52
28927;BME280;16038;47.692;9.400;2024-02-15T11:11:54;96892.28;;;15.10;63.16
28927;BME280;16038;47.692;9.400;2024-02-15T11:14:25;96891.50;;;15.21;61.48
28927;BME280;16038;47.692;9.400;2024-02-15T11:16:50;96892.31;;;15.64;56.85
28927;BME280;16038;47.692;9.400;2024-02-15T11:19:40;96882.81;;;15.04;55.54
28927;BME280;16038;47.692;9.400;2024-02-15T11:22:11;96882.47;;;13.52;58.31
28927;BME280;16038;47.692;9.400;2024-02-15T11:24:37;96877.84;;;12.77;62.31
28927;BME280;16038;47.692;9.400;2024-02-15T11:27:10;96873.75;;;13.01;61.61
28927;BME280;16038;47.692;9.400;2024-02-15T11:29:55;96869.16;;;13.13;61.21
28927;BME280;16038;47.692;9.400;2024-02-15T11:40:13;96854.53;;;14.09;68.08
28927;BME280;16038;47.692;9.400;2024-02-15T11:42:38;96856.41;;;15.00;63.82
28927;BME280;16038;47.692;9.400;2024-02-15T11:45:06;96848.94;;;15.11;61.07
28927;BME280;16038;47.692;9.400;2024-02-15T11:47:37;96855.25;;;15.29;63.41
28927;BME280;16038;47.692;9.400;2024-02-15T11:50:07;96849.75;;;15.47;64.64
28927;BME280;16038;47.692;9.400;2024-02-15T11:52:33;96843.84;;;15.24;66.61
28927;BME280;16038;47.692;9.400;2024-02-15T11:55:06;96843.38;;;14.75;68.44
28927;BME280;16038;47.692;9.400;2024-02-15T11:57:41;96828.38;;;14.72;69.80
28927;BME280;16038;47.692;9.400;2024-02-15T12:00:25;96827.28;;;15.20;69.82
28927;BME280;16038;47.692;9.400;2024-02-15T12:03:09;96840.28;;;15.31;65.96
28927;BME280;16038;47.692;9.400;2024-02-15T12:05:54;96835.94;;;15.47;63.98
28927;BME280;16038;47.692;9.400;2024-02-15T12:08:38;96828.41;;;15.77;63.11
28927;BME280;16038;47.692;9.400;2024-02-15T12:11:23;96829.53;;;16.12;61.44
28927;BME280;16038;47.692;9.400;2024-02-15T12:14:12;96827.25;;;16.77;58.34
28927;BME280;16038;47.692;9.400;2024-02-15T12:17:00;96832.31;;;16.93;55.57
28927;BME280;16038;47.692;9.400;2024-02-15T12:19:44;96838.97;;;16.99;53.52
28927;BME280;16038;47.692;9.400;2024-02-15T12:22:10;96836.50;;;17.12;53.92
28927;BME280;16038;47.692;9.400;2024-02-15T12:24:36;96828.84;;;17.30;52.85
28927;BME280;16038;47.692;9.400;2024-02-15T12:27:01;96827.06;;;17.09;52.80
28927;BME280;16038;47.692;9.400;2024-02-15T12:29:28;96815.06;;;17.23;51.60
28927;BME280;16038;47.692;9.400;2024-02-15T12:31:54;96822.44;;;17.41;50.46
28927;BME280;16038;47.692;9.400;2024-02-15T12:34:20;96821.16;;;17.98;49.51
28927;BME280;16038;47.692;9.400;2024-02-15T12:36:46;96810.47;;;17.96;50.55
28927;BME280;16038;47.692;9.400;2024-02-15T12:39:24;96807.16;;;17.70;51.60
28927;BME280;16038;47.692;9.400;2024-02-15T12:41:50;96809.69;;;18.30;49.73
28927;BME280;16038;47.692;9.400;2024-02-15T12:44:19;96808.94;;;18.26;48.07
28927;BME280;16038;47.692;9.400;2024-02-15T12:46:54;96810.00;;;18.66;47.37
28927;BME280;16038;47.692;9.400;2024-02-15T12:51:50;96801.69;;;18.01;48.66
28927;BME280;16038;47.692;9.400;2024-02-15T12:54:22;96807.50;;;18.14;48.08
28927;BME280;16038;47.692;9.400;2024-02-15T12:56:48;96811.94;;;18.08;48.20
28927;BME280;16038;47.692;9.400;2024-02-15T12:59:19;96799.09;;;17.87;48.64
28927;BME280;16038;47.692;9.400;2024-02-15T13:01:45;96812.22;;;17.79;47.96
28927;BME280;16038;47.692;9.400;2024-02-15T13:04:23;96802.16;;;17.09;48.67
28927;BME280;16038;47.692;9.400;2024-02-15T13:06:49;96796.81;;;17.33;48.05
28927;BME280;16038;47.692;9.400;2024-02-15T13:09:14;96790.91;;;17.72;47.68
28927;BME280;16038;47.692;9.400;2024-02-15T13:11:40;96787.59;;;17.88;46.74
28927;BME280;16038;47.692;9.400;2024-02-15T13:14:05;96779.03;;;17.72;47.19
28927;BME280;16038;47.692;9.400;2024-02-15T13:16:30;96781.56;;;17.97;46.25
28927;BME280;16038;47.692;9.400;2024-02-15T13:18:56;96772.69;;;17.71;46.28
28927;BME280;16038;47.692;9.400;2024-02-15T13:21:23;96770.38;;;17.66;46.36